sensor_id;sensor_type;location;lat;lon;timestamp;pressure;altitude;pressure_sealevel;temperature;humidity
75065;BME280;63646;49.110;9.140;2023-02-11T05:02:37;101271.38;;;20.08;46.47
75065;BME280;63646;49.110;9.140;2023-02-11T05:05:03;101266.81;;;20.10;46.46
75065;BME280;63646;49.110;9.140;2023-02-11T05:07:29;101253.28;;;20.14;46.22
75065;BME280;63646;49.110;9.140;2023-02-11T05:09:54;101256.63;;;20.18;46.39
75065;BME280;63646;49.110;9.140;2023-02-11T05:12:20;101255.09;;;20.28;46.27
75065;BME280;63646;49.110;9.140;2023-02-11T05:14:46;101253.78;;;20.35;46.00
75065;BME280;63646;49.110;9.140;2023-02-11T05:17:12;101245.06;;;20.33;45.48
75065;BME280;63646;49.110;9.140;2023-02-11T05:19:37;101266.59;;;20.43;45.91
75065;BME280;63646;49.110;9.140;2023-02-11T05:22:03;101254.94;;;20.45;45.50
75065;BME280;63646;49.110;9.140;2023-02-11T05:24:30;101270.69;;;20.48;46.23
75065;BME280;63646;49.110;9.140;2023-02-11T05:26:55;101277.56;;;20.53;45.53
75065;BME280;63646;49.110;9.140;2023-02-11T05:29:21;101275.00;;;20.51;45.54
75065;BME280;63646;49.110;9.140;2023-02-11T05:31:46;101281.16;;;20.52;45.39
75065;BME280;63646;49.110;9.140;2023-02-11T05:34:12;101282.69;;;20.56;45.49
75065;BME280;63646;49.110;9.140;2023-02-11T05:36:37;101283.53;;;20.56;45.26
75065;BME280;63646;49.110;9.140;2023-02-11T05:39:03;101289.69;;;20.57;45.58
75065;BME280;63646;49.110;9.140;2023-02-11T05:41:28;101311.31;;;20.65;45.26
75065;BME280;63646;49.110;9.140;2023-02-11T05:43:54;101301.84;;;20.61;45.22
75065;BME280;63646;49.110;9.140;2023-02-11T05:46:19;101314.66;;;20.68;44.82
75065;BME280;63646;49.110;9.140;2023-02-11T05:48:45;101304.88;;;20.69;45.25
75065;BME280;63646;49.110;9.140;2023-02-11T05:51:10;101299.56;;;20.69;45.16
75065;BME280;63646;49.110;9.140;2023-02-11T05:53:36;101296.16;;;20.67;45.16
75065;BME280;63646;49.110;9.140;2023-02-11T05:56:01;101300.44;;;20.69;45.03
75065;BME280;63646;49.110;9.140;2023-02-11T05:58:27;101284.56;;;20.68;45.14
75065;BME280;63646;49.110;9.140;2023-02-11T06:00:52;101271.66;;;20.62;45.40
75065;BME280;63646;49.110;9.140;2023-02-11T06:03:18;101280.03;;;20.70;45.24
75065;BME280;63646;49.110;9.140;2023-02-11T06:05:44;101279.09;;;20.71;45.04
75065;BME280;63646;49.110;9.140;2023-02-11T06:08:10;101272.06;;;20.70;45.32
75065;BME280;63646;49.110;9.140;2023-02-11T06:10:35;101278.53;;;20.66;45.32
75065;BME280;63646;49.110;9.140;2023-02-11T06:13:01;101280.03;;;20.70;45.15
75065;BME280;63646;49.110;9.140;2023-02-11T06:15:27;101282.78;;;20.68;45.41
75065;BME280;63646;49.110;9.140;2023-02-11T06:17:52;101271.47;;;20.65;45.24
75065;BME280;63646;49.110;9.140;2023-02-11T06:20:18;101270.56;;;20.66;45.36
75065;BME280;63646;49.110;9.140;2023-02-11T06:22:43;101264.66;;;20.61;45.25
75065;BME280;63646;49.110;9.140;2023-02-11T06:25:10;101265.59;;;20.60;45.06
75065;BME280;63646;49.110;9.140;2023-02-11T06:27:36;101276.72;;;20.66;45.02
75065;BME280;63646;49.110;9.140;2023-02-11T06:30:03;101280.41;;;20.64;45.58
75065;BME280;63646;49.110;9.140;2023-02-11T06:32:29;101271.09;;;20.57;45.69
75065;BME280;63646;49.110;9.140;2023-02-11T06:34:54;101281.44;;;20.61;45.22
75065;BME280;63646;49.110;9.140;2023-02-11T06:37:20;101282.50;;;20.59;45.20
75065;BME280;63646;49.110;9.140;2023-02-11T06:39:46;101282.28;;;20.62;45.41
75065;BME280;63646;49.110;9.140;2023-02-11T06:42:11;101285.91;;;20.61;45.12
75065;BME280;63646;49.110;9.140;2023-02-11T06:44:37;101284.19;;;20.60;45.27
75065;BME280;63646;49.110;9.140;2023-02-11T06:47:03;101288.56;;;20.61;45.50
75065;BME280;63646;49.110;9.140;2023-02-11T06:49:29;101290.25;;;20.62;45.28
75065;BME280;63646;49.110;9.140;2023-02-11T06:51:54;101288.56;;;20.61;45.08
75065;BME280;63646;49.110;9.140;2023-02-11T06:54:20;101279.75;;;20.60;45.11
75065;BME280;63646;49.110;9.140;2023-02-11T06:56:45;101279.75;;;20.60;45.26
75065;BME280;63646;49.110;9.140;2023-02-11T06:59:14;101273.75;;;20.57;45.63
75065;BME280;63646;49.110;9.140;2023-02-11T07:01:40;101286.56;;;20.64;45.10
75065;BME280;63646;49.110;9.140;2023-02-11T07:04:05;101292.72;;;20.65;45.37
75065;BME280;63646;49.110;9.140;2023-02-11T07:06:32;101286.50;;;20.66;45.36
75065;BME280;63646;49.110;9.140;2023-02-11T07:08:58;101281.25;;;20.64;45.27
75065;BME280;63646;49.110;9.140;2023-02-11T07:11:26;101296.53;;;20.61;45.37
75065;BME280;63646;49.110;9.140;2023-02-11T07:13:54;101317.41;;;20.67;45.15
75065;BME280;63646;49.110;9.140;2023-02-11T07:16:20;101306.13;;;20.63;45.23
75065;BME280;63646;49.110;9.140;2023-02-11T07:18:47;101310.41;;;20.66;45.35
75065;BME280;63646;49.110;9.140;2023-02-11T07:21:14;101311.91;;;20.70;45.09
75065;BME280;63646;49.110;9.140;2023-02-11T07:23:40;101293.69;;;20.64;45.19
75065;BME280;63646;49.110;9.140;2023-02-11T07:26:11;101298.63;;;20.70;45.32
75065;BME280;63646;49.110;9.140;2023-02-11T07:28:38;101289.16;;;20.66;45.27
75065;BME280;63646;49.110;9.140;2023-02-11T07:31:15;101285.53;;;20.67;45.04
75065;BME280;63646;49.110;9.140;2023-02-11T07:33:42;101284.56;;;20.68;45.32
75065;BME280;63646;49.110;9.140;2023-02-11T07:36:10;101279.25;;;20.68;45.14
75065;BME280;63646;49.110;9.140;2023-02-11T07:38:39;101269.59;;;20.67;45.33
75065;BME280;63646;49.110;9.140;2023-02-11T07:41:07;101266.94;;;20.67;45.32
75065;BME280;63646;49.110;9.140;2023-02-11T07:43:34;101268.81;;;20.65;45.52
75065;BME280;63646;49.110;9.140;2023-02-11T07:46:05;101272.16;;;20.68;45.27
75065;BME280;63646;49.110;9.140;2023-02-11T07:48:30;101258.50;;;20.60;45.13
75065;BME280;63646;49.110;9.140;2023-02-11T07:51:07;101276.53;;;20.69;45.44
75065;BME280;63646;49.110;9.140;2023-02-11T07:53:33;101276.53;;;20.69;45.13
75065;BME280;63646;49.110;9.140;2023-02-11T07:55:59;101289.88;;;20.68;45.28
75065;BME280;63646;49.110;9.140;2023-02-11T07:58:24;101286.69;;;20.63;45.25
75065;BME280;63646;49.110;9.140;2023-02-11T08:00:50;101295.31;;;20.66;45.28
75065;BME280;63646;49.110;9.140;2023-02-11T08:03:15;101285.16;;;20.59;45.15
75065;BME280;63646;49.110;9.140;2023-02-11T08:05:41;101292.72;;;20.65;45.22
75065;BME280;63646;49.110;9.140;2023-02-11T08:08:08;101293.50;;;20.67;45.52
75065;BME280;63646;49.110;9.140;2023-02-11T08:10:33;101276.13;;;20.61;45.38
75065;BME280;63646;49.110;9.140;2023-02-11T08:12:58;101282.09;;;20.65;45.16
75065;BME280;63646;49.110;9.140;2023-02-11T08:15:24;101280.28;;;20.65;45.08
75065;BME280;63646;49.110;9.140;2023-02-11T08:17:49;101287.06;;;20.71;45.45
75065;BME280;63646;49.110;9.140;2023-02-11T08:20:15;101277.47;;;20.68;45.57
75065;BME280;63646;49.110;9.140;2023-02-11T08:22:41;101279.19;;;20.69;45.66
75065;BME280;63646;49.110;9.140;2023-02-11T08:25:07;101273.94;;;20.68;45.50
75065;BME280;63646;49.110;9.140;2023-02-11T08:27:33;101262.59;;;20.66;45.24
75065;BME280;63646;49.110;9.140;2023-02-11T08:29:58;101272.44;;;20.64;45.79
75065;BME280;63646;49.110;9.140;2023-02-11T08:32:24;101280.22;;;20.67;45.72
75065;BME280;63646;49.110;9.140;2023-02-11T08:34:51;101275.94;;;20.64;45.74
75065;BME280;63646;49.110;9.140;2023-02-11T08:37:17;101279.09;;;20.71;45.64
75065;BME280;63646;49.110;9.140;2023-02-11T08:39:43;101268.25;;;20.60;46.06
75065;BME280;63646;49.110;9.140;2023-02-11T08:42:09;101269.13;;;20.60;45.95
75065;BME280;63646;49.110;9.140;2023-02-11T08:44:34;101267.91;;;20.66;45.41
75065;BME280;63646;49.110;9.140;2023-02-11T08:47:00;101276.59;;;20.68;46.25
75065;BME280;63646;49.110;9.140;2023-02-11T08:49:25;101272.34;;;20.65;45.90
75065;BME280;63646;49.110;9.140;2023-02-11T08:51:51;101284.22;;;20.74;45.68
75065;BME280;63646;49.110;9.140;2023-02-11T08:54:38;101266.16;;;20.65;45.98
75065;BME280;63646;49.110;9.140;2023-02-11T08:57:04;101270.34;;;20.69;45.96
75065;BME280;63646;49.110;9.140;2023-02-11T08:59:30;101267.50;;;20.72;45.79
75065;BME280;63646;49.110;9.140;2023-02-11T09:01:55;101281.38;;;20.77;46.11
75065;BME280;63646;49.110;9.140;2023-02-11T09:04:21;101289.13;;;20.80;45.79
75065;BME280;63646;49.110;9.140;2023-02-11T09:06:46;101278.78;;;20.75;45.55
75065;BME280;63646;49.110;9.140;2023-02-11T09:09:13;101294.38;;;20.82;45.56
75065;BME280;63646;49.110;9.140;2023-02-11T09:11:40;101285.72;;;20.78;45.41
75065;BME280;63646;49.110;9.140;2023-02-11T09:14:13;101284.59;;;20.82;45.84
75065;BME280;63646;49.110;9.140;2023-02-11T09:16:41;101293.31;;;20.84;45.81
75065;BME280;63646;49.110;9.140;2023-02-11T09:19:08;101295.88;;;20.86;45.38
75065;BME280;63646;49.110;9.140;2023-02-11T09:21:34;101287.06;;;20.85;45.69
75065;BME280;63646;49.110;9.140;2023-02-11T09:23:59;101284.88;;;20.92;45.79
75065;BME280;63646;49.110;9.140;2023-02-11T09:26:30;101271.19;;;20.84;45.68
75065;BME280;63646;49.110;9.140;2023-02-11T09:28:57;101275.28;;;20.89;45.97
75065;BME280;63646;49.110;9.140;2023-02-11T09:31:23;101270.53;;;20.94;45.47
75065;BME280;63646;49.110;9.140;2023-02-11T09:33:51;101281.25;;;20.93;45.79
75065;BME280;63646;49.110;9.140;2023-02-11T09:36:20;101281.75;;;20.99;45.72
75065;BME280;63646;49.110;9.140;2023-02-11T09:38:46;101287.06;;;20.99;45.93
75065;BME280;63646;49.110;9.140;2023-02-11T09:41:34;101290.09;;;20.93;45.81
75065;BME280;63646;49.110;9.140;2023-02-11T09:44:06;101279.84;;;19.68;32.52
75065;BME280;63646;49.110;9.140;2023-02-11T09:46:39;101270.88;;;18.24;32.19
75065;BME280;63646;49.110;9.140;2023-02-11T09:49:06;101272.03;;;17.09;31.94
75065;BME280;63646;49.110;9.140;2023-02-11T09:51:54;101290.31;;;16.34;31.93
75065;BME280;63646;49.110;9.140;2023-02-11T09:54:39;101296.84;;;15.61;33.17
75065;BME280;63646;49.110;9.140;2023-02-11T09:57:09;101282.16;;;15.10;33.58
75065;BME280;63646;49.110;9.140;2023-02-11T09:59:35;101294.16;;;14.93;33.87
75065;BME280;63646;49.110;9.140;2023-02-11T10:02:14;101288.44;;;14.82;34.60
75065;BME280;63646;49.110;9.140;2023-02-11T10:05:01;101294.34;;;15.12;34.98
75065;BME280;63646;49.110;9.140;2023-02-11T10:10:03;101298.03;;;15.76;34.52
75065;BME280;63646;49.110;9.140;2023-02-11T10:15:33;101295.16;;;15.82;33.87
75065;BME280;63646;49.110;9.140;2023-02-11T10:23:47;101272.94;;;16.09;33.56
75065;BME280;63646;49.110;9.140;2023-02-11T10:26:15;101275.09;;;16.00;33.70
75065;BME280;63646;49.110;9.140;2023-02-11T10:28:44;101263.56;;;16.23;33.98
75065;BME280;63646;49.110;9.140;2023-02-11T10:31:25;101259.84;;;16.27;33.84
75065;BME280;63646;49.110;9.140;2023-02-11T10:33:55;101272.13;;;16.07;34.35
75065;BME280;63646;49.110;9.140;2023-02-11T10:36:37;101270.88;;;15.96;33.76
75065;BME280;63646;49.110;9.140;2023-02-11T10:41:44;101272.03;;;16.70;34.22
75065;BME280;63646;49.110;9.140;2023-02-11T10:46:52;101261.34;;;17.49;35.29
75065;BME280;63646;49.110;9.140;2023-02-11T10:49:41;101258.88;;;17.82;35.59
75065;BME280;63646;49.110;9.140;2023-02-11T10:52:18;101263.84;;;17.52;32.98
75065;BME280;63646;49.110;9.140;2023-02-11T10:57:38;101262.31;;;17.10;33.16
75065;BME280;63646;49.110;9.140;2023-02-11T11:00:37;101262.22;;;16.93;33.85
75065;BME280;63646;49.110;9.140;2023-02-11T11:03:35;101264.66;;;17.35;34.02
75065;BME280;63646;49.110;9.140;2023-02-11T11:06:08;101273.22;;;17.40;33.64
75065;BME280;63646;49.110;9.140;2023-02-11T11:11:07;101257.09;;;17.08;33.77
75065;BME280;63646;49.110;9.140;2023-02-11T11:13:57;101247.59;;;17.04;34.42
75065;BME280;63646;49.110;9.140;2023-02-11T11:16:24;101260.38;;;17.32;35.52
75065;BME280;63646;49.110;9.140;2023-02-11T11:19:14;101259.13;;;17.58;35.63
75065;BME280;63646;49.110;9.140;2023-02-11T11:21:53;101259.66;;;17.84;35.90
75065;BME280;63646;49.110;9.140;2023-02-11T11:24:28;101260.28;;;18.06;35.14
75065;BME280;63646;49.110;9.140;2023-02-11T11:26:59;101248.75;;;18.25;35.23
75065;BME280;63646;49.110;9.140;2023-02-11T11:32:01;101246.53;;;18.50;34.94
75065;BME280;63646;49.110;9.140;2023-02-11T11:34:32;101252.06;;;18.63;34.95
75065;BME280;63646;49.110;9.140;2023-02-11T11:37:08;101254.47;;;18.68;34.33
75065;BME280;63646;49.110;9.140;2023-02-11T11:39:34;101257.41;;;18.79;34.51
75065;BME280;63646;49.110;9.140;2023-02-11T11:42:19;101261.44;;;18.86;34.63
75065;BME280;63646;49.110;9.140;2023-02-11T11:44:55;101248.03;;;18.89;34.90
75065;BME280;63646;49.110;9.140;2023-02-11T11:47:28;101257.44;;;18.95;34.41
75065;BME280;63646;49.110;9.140;2023-02-11T11:50:35;101261.28;;;19.05;34.62
75065;BME280;63646;49.110;9.140;2023-02-11T11:53:14;101270.50;;;19.14;34.94
75065;BME280;63646;49.110;9.140;2023-02-11T11:55:55;101254.72;;;19.12;34.39
75065;BME280;63646;49.110;9.140;2023-02-11T11:58:22;101263.41;;;19.14;34.75
75065;BME280;63646;49.110;9.140;2023-02-11T12:17:08;101273.66;;;17.31;35.25
75065;BME280;63646;49.110;9.140;2023-02-11T12:41:13;101242.91;;;18.69;35.55
75065;BME280;63646;49.110;9.140;2023-02-11T12:43:42;101249.75;;;18.90;35.33
75065;BME280;63646;49.110;9.140;2023-02-11T12:49:17;101246.50;;;19.17;35.34
75065;BME280;63646;49.110;9.140;2023-02-11T12:52:15;101250.34;;;19.27;35.90
75065;BME280;63646;49.110;9.140;2023-02-11T12:57:22;101232.13;;;19.37;36.35
75065;BME280;63646;49.110;9.140;2023-02-11T13:05:27;101217.34;;;19.48;36.44
75065;BME280;63646;49.110;9.140;2023-02-11T13:08:03;101218.09;;;19.50;36.40
75065;BME280;63646;49.110;9.140;2023-02-11T13:10:34;101214.69;;;19.48;36.88
75065;BME280;63646;49.110;9.140;2023-02-11T13:13:04;101207.56;;;19.49;36.76
75065;BME280;63646;49.110;9.140;2023-02-11T13:15:47;101212.25;;;19.60;37.36
75065;BME280;63646;49.110;9.140;2023-02-11T13:18:27;101201.84;;;19.57;37.97
75065;BME280;63646;49.110;9.140;2023-02-11T13:23:56;101203.88;;;19.67;38.09
75065;BME280;63646;49.110;9.140;2023-02-11T13:29:28;101201.75;;;19.74;37.94
75065;BME280;63646;49.110;9.140;2023-02-11T13:32:05;101195.84;;;19.69;38.41
75065;BME280;63646;49.110;9.140;2023-02-11T13:39:41;101194.81;;;19.71;38.43
75065;BME280;63646;49.110;9.140;2023-02-11T13:42:13;101186.00;;;19.71;38.68
75065;BME280;63646;49.110;9.140;2023-02-11T13:44:39;101196.34;;;19.75;38.77
75065;BME280;63646;49.110;9.140;2023-02-11T13:47:06;101198.97;;;19.75;39.01
75065;BME280;63646;49.110;9.140;2023-02-11T13:49:37;101196.50;;;19.72;38.64
75065;BME280;63646;49.110;9.140;2023-02-11T13:52:36;101206.84;;;19.77;39.07
75065;BME280;63646;49.110;9.140;2023-02-11T13:55:19;101199.84;;;19.76;38.67
75065;BME280;63646;49.110;9.140;2023-02-11T14:06:17;101215.22;;;19.85;39.30
75065;BME280;63646;49.110;9.140;2023-02-11T14:14:17;101207.06;;;19.88;39.53
75065;BME280;63646;49.110;9.140;2023-02-11T14:19:38;101216.38;;;19.95;39.52
75065;BME280;63646;49.110;9.140;2023-02-11T14:22:13;101217.31;;;19.94;39.67
75065;BME280;63646;49.110;9.140;2023-02-11T14:24:54;101211.94;;;19.96;39.67
75065;BME280;63646;49.110;9.140;2023-02-11T14:30:08;101212.59;;;19.99;39.56
75065;BME280;63646;49.110;9.140;2023-02-11T14:36:00;101209.97;;;19.99;39.73
75065;BME280;63646;49.110;9.140;2023-02-11T14:41:21;101207.19;;;20.01;40.09
75065;BME280;63646;49.110;9.140;2023-02-11T14:43:51;101216.13;;;20.00;40.24
75065;BME280;63646;49.110;9.140;2023-02-11T14:46:19;101218.66;;;20.01;39.98
75065;BME280;63646;49.110;9.140;2023-02-11T14:48:51;101222.94;;;20.04;39.88
75065;BME280;63646;49.110;9.140;2023-02-11T14:51:27;101222.09;;;20.03;40.29
75065;BME280;63646;49.110;9.140;2023-02-11T14:53:58;101213.63;;;19.97;40.14
75065;BME280;63646;49.110;9.140;2023-02-11T14:56:28;101218.38;;;20.06;40.56
75065;BME280;63646;49.110;9.140;2023-02-11T14:58:58;101219.22;;;20.07;40.25
75065;BME280;63646;49.110;9.140;2023-02-11T15:01:33;101227.13;;;20.08;40.38
75065;BME280;63646;49.110;9.140;2023-02-11T15:04:04;101218.59;;;20.03;40.05
75065;BME280;63646;49.110;9.140;2023-02-11T15:06:32;101231.28;;;20.12;40.27
75065;BME280;63646;49.110;9.140;2023-02-11T15:09:22;101227.84;;;20.10;40.35
75065;BME280;63646;49.110;9.140;2023-02-11T15:11:52;101232.50;;;20.07;40.26
75065;BME280;63646;49.110;9.140;2023-02-11T15:16:55;101230.78;;;20.06;41.01
75065;BME280;63646;49.110;9.140;2023-02-11T15:19:28;101251.84;;;20.09;40.62
75065;BME280;63646;49.110;9.140;2023-02-11T15:21:54;101255.34;;;20.09;40.52
75065;BME280;63646;49.110;9.140;2023-02-11T15:27:11;101244.16;;;20.04;41.03
75065;BME280;63646;49.110;9.140;2023-02-11T15:29:43;101244.16;;;20.04;40.73
75065;BME280;63646;49.110;9.140;2023-02-11T15:34:34;101252.97;;;20.05;40.67
75065;BME280;63646;49.110;9.140;2023-02-11T15:37:02;101254.78;;;20.04;41.01
75065;BME280;63646;49.110;9.140;2023-02-11T15:39:35;101259.31;;;20.02;40.96
75065;BME280;63646;49.110;9.140;2023-02-11T15:44:47;101261.22;;;20.00;41.46
75065;BME280;63646;49.110;9.140;2023-02-11T15:47:20;101264.72;;;20.00;41.01
75065;BME280;63646;49.110;9.140;2023-02-11T15:49:47;101263.03;;;19.99;41.30
75065;BME280;63646;49.110;9.140;2023-02-11T15:52:14;101263.03;;;19.99;41.33
75065;BME280;63646;49.110;9.140;2023-02-11T15:54:46;101260.38;;;19.99;41.46
75065;BME280;63646;49.110;9.140;2023-02-11T15:57:15;101263.94;;;19.98;41.24
75065;BME280;63646;49.110;9.140;2023-02-11T15:59:47;101262.25;;;19.97;41.33
75065;BME280;63646;49.110;9.140;2023-02-11T16:02:20;101265.69;;;19.99;41.53
75065;BME280;63646;49.110;9.140;2023-02-11T16:04:49;101270.97;;;19.99;41.44
75065;BME280;63646;49.110;9.140;2023-02-11T16:10:24;101262.13;;;19.99;41.38
75065;BME280;63646;49.110;9.140;2023-02-11T16:15:47;101259.09;;;19.91;41.53
75065;BME280;63646;49.110;9.140;2023-02-11T16:20:46;101253.78;;;19.91;41.78
75065;BME280;63646;49.110;9.140;2023-02-11T16:23:19;101248.59;;;19.89;41.67
75065;BME280;63646;49.110;9.140;2023-02-11T16:25:46;101265.06;;;19.94;41.43
75065;BME280;63646;49.110;9.140;2023-02-11T16:28:14;101266.09;;;19.92;42.06
75065;BME280;63646;49.110;9.140;2023-02-11T16:30:41;101271.06;;;19.98;41.66
75065;BME280;63646;49.110;9.140;2023-02-11T16:33:09;101272.97;;;19.96;41.75
75065;BME280;63646;49.110;9.140;2023-02-11T16:35:35;101265.06;;;19.94;41.87
75065;BME280;63646;49.110;9.140;2023-02-11T16:38:01;101265.06;;;19.94;41.41
75065;BME280;63646;49.110;9.140;2023-02-11T16:40:27;101269.25;;;19.98;41.82
75065;BME280;63646;49.110;9.140;2023-02-11T16:42:52;101272.75;;;19.99;41.86
75065;BME280;63646;49.110;9.140;2023-02-11T16:45:21;101261.41;;;19.97;41.65
75065;BME280;63646;49.110;9.140;2023-02-11T16:47:46;101269.84;;;20.03;41.71
75065;BME280;63646;49.110;9.140;2023-02-11T16:50:19;101265.28;;;20.06;41.81
75065;BME280;63646;49.110;9.140;2023-02-11T16:52:45;101269.06;;;20.01;41.99
75065;BME280;63646;49.110;9.140;2023-02-11T16:55:11;101276.69;;;20.08;41.64
75065;BME280;63646;49.110;9.140;2023-02-11T16:57:37;101275.72;;;20.09;41.78
75065;BME280;63646;49.110;9.140;2023-02-11T17:00:04;101276.50;;;20.11;41.96
75065;BME280;63646;49.110;9.140;2023-02-11T17:02:33;101259.91;;;20.07;42.00
75065;BME280;63646;49.110;9.140;2023-02-11T17:05:06;101276.13;;;20.17;42.12
75065;BME280;63646;49.110;9.140;2023-02-11T17:07:35;101270.25;;;20.12;41.91
75065;BME280;63646;49.110;9.140;2023-02-11T17:10:12;101281.25;;;20.20;41.87
75065;BME280;63646;49.110;9.140;2023-02-11T17:12:38;101277.09;;;20.16;41.73
75065;BME280;63646;49.110;9.140;2023-02-11T17:15:03;101278.09;;;20.13;41.83
75065;BME280;63646;49.110;9.140;2023-02-11T17:17:28;101281.72;;;20.12;41.75
75065;BME280;63646;49.110;9.140;2023-02-11T17:19:57;101277.84;;;20.18;41.66
75065;BME280;63646;49.110;9.140;2023-02-11T17:22:22;101287.59;;;20.17;41.89
75065;BME280;63646;49.110;9.140;2023-02-11T17:24:47;101277.19;;;20.14;41.82
75065;BME280;63646;49.110;9.140;2023-02-11T17:27:13;101290.34;;;20.16;41.88
75065;BME280;63646;49.110;9.140;2023-02-11T17:29:39;101285.53;;;20.22;41.90
75065;BME280;63646;49.110;9.140;2023-02-11T17:32:05;101289.72;;;19.96;37.81
75065;BME280;63646;49.110;9.140;2023-02-11T17:34:30;101299.34;;;19.83;40.22
75065;BME280;63646;49.110;9.140;2023-02-11T17:36:56;101296.75;;;19.97;42.04
75065;BME280;63646;49.110;9.140;2023-02-11T17:39:27;101285.94;;;20.00;42.21
75065;BME280;63646;49.110;9.140;2023-02-11T17:41:52;101290.88;;;20.07;41.92
75065;BME280;63646;49.110;9.140;2023-02-11T17:44:18;101283.88;;;20.06;41.64
75065;BME280;63646;49.110;9.140;2023-02-11T17:46:43;101296.78;;;20.12;41.73
75065;BME280;63646;49.110;9.140;2023-02-11T17:49:10;101300.19;;;20.14;41.49
75065;BME280;63646;49.110;9.140;2023-02-11T17:51:37;101307.13;;;20.16;41.25
75065;BME280;63646;49.110;9.140;2023-02-11T17:54:12;101308.75;;;20.19;41.66
75065;BME280;63646;49.110;9.140;2023-02-11T17:56:38;101305.50;;;20.14;41.88
75065;BME280;63646;49.110;9.140;2023-02-11T17:59:04;101314.81;;;20.21;41.49
75065;BME280;63646;49.110;9.140;2023-02-11T18:01:31;101311.59;;;20.16;41.45
75065;BME280;63646;49.110;9.140;2023-02-11T18:03:57;101315.19;;;20.15;41.94
75065;BME280;63646;49.110;9.140;2023-02-11T18:06:23;101311.59;;;20.16;41.49
75065;BME280;63646;49.110;9.140;2023-02-11T18:08:48;101320.50;;;20.15;41.74
75065;BME280;63646;49.110;9.140;2023-02-11T18:11:17;101318.59;;;20.17;42.06
75065;BME280;63646;49.110;9.140;2023-02-11T18:13:43;101323.91;;;20.17;42.19
75065;BME280;63646;49.110;9.140;2023-02-11T18:16:09;101314.06;;;20.19;42.09
75065;BME280;63646;49.110;9.140;2023-02-11T18:18:40;101322.88;;;20.19;42.29
75065;BME280;63646;49.110;9.140;2023-02-11T18:21:06;101327.50;;;20.16;42.17
75065;BME280;63646;49.110;9.140;2023-02-11T18:23:34;101327.41;;;20.17;42.15
75065;BME280;63646;49.110;9.140;2023-02-11T18:26:00;101320.84;;;20.09;42.37
75065;BME280;63646;49.110;9.140;2023-02-11T18:28:26;101337.09;;;20.18;42.33
75065;BME280;63646;49.110;9.140;2023-02-11T18:30:56;101324.06;;;20.14;42.46
75065;BME280;63646;49.110;9.140;2023-02-11T18:33:22;101323.16;;;20.15;42.12
75065;BME280;63646;49.110;9.140;2023-02-11T18:35:51;101333.31;;;20.22;42.63
75065;BME280;63646;49.110;9.140;2023-02-11T18:38:16;101333.16;;;20.10;39.66
75065;BME280;63646;49.110;9.140;2023-02-11T18:40:43;101325.25;;;19.30;35.83
75065;BME280;63646;49.110;9.140;2023-02-11T18:43:12;101312.59;;;18.71;36.52
75065;BME280;63646;49.110;9.140;2023-02-11T18:45:47;101322.53;;;18.99;38.55
75065;BME280;63646;49.110;9.140;2023-02-11T18:48:14;101331.81;;;19.23;41.57
75065;BME280;63646;49.110;9.140;2023-02-11T18:50:42;101328.91;;;19.44;41.70
75065;BME280;63646;49.110;9.140;2023-02-11T18:53:09;101332.34;;;19.62;41.56
75065;BME280;63646;49.110;9.140;2023-02-11T18:55:37;101325.19;;;19.79;41.49
75065;BME280;63646;49.110;9.140;2023-02-11T18:58:03;101328.34;;;19.86;41.93
75065;BME280;63646;49.110;9.140;2023-02-11T19:00:28;101338.63;;;19.92;41.88
75065;BME280;63646;49.110;9.140;2023-02-11T19:02:55;101342.53;;;20.01;42.04
75065;BME280;63646;49.110;9.140;2023-02-11T19:05:21;101335.06;;;20.08;41.88
75065;BME280;63646;49.110;9.140;2023-02-11T19:07:46;101329.59;;;20.11;41.65
75065;BME280;63646;49.110;9.140;2023-02-11T19:10:11;101337.34;;;20.14;41.84
75065;BME280;63646;49.110;9.140;2023-02-11T19:12:37;101319.91;;;20.10;42.02
75065;BME280;63646;49.110;9.140;2023-02-11T19:15:07;101330.94;;;20.18;41.78
75065;BME280;63646;49.110;9.140;2023-02-11T19:17:33;101324.69;;;20.19;42.39
75065;BME280;63646;49.110;9.140;2023-02-11T19:19:58;101309.03;;;20.14;42.41
75065;BME280;63646;49.110;9.140;2023-02-11T19:22:24;101308.94;;;20.16;42.44
75065;BME280;63646;49.110;9.140;2023-02-11T19:24:49;101320.72;;;20.26;42.50
75065;BME280;63646;49.110;9.140;2023-02-11T19:27:15;101314.75;;;20.22;42.44
75065;BME280;63646;49.110;9.140;2023-02-11T19:29:40;101325.06;;;20.27;42.18
75065;BME280;63646;49.110;9.140;2023-02-11T19:32:06;101326.78;;;20.28;42.52
75065;BME280;63646;49.110;9.140;2023-02-11T19:34:32;101326.09;;;20.24;42.49
75065;BME280;63646;49.110;9.140;2023-02-11T19:36:58;101328.50;;;20.29;42.43
75065;BME280;63646;49.110;9.140;2023-02-11T19:39:25;101320.53;;;20.29;42.50
75065;BME280;63646;49.110;9.140;2023-02-11T19:41:51;101330.78;;;20.35;42.54
75065;BME280;63646;49.110;9.140;2023-02-11T19:44:16;101337.72;;;20.38;42.31
75065;BME280;63646;49.110;9.140;2023-02-11T19:46:43;101336.69;;;20.40;42.30
75065;BME280;63646;49.110;9.140;2023-02-11T19:49:12;101338.28;;;20.43;42.22
75065;BME280;63646;49.110;9.140;2023-02-11T19:51:38;101333.94;;;20.42;42.37
75065;BME280;63646;49.110;9.140;2023-02-11T19:54:04;101342.75;;;20.42;42.33
75065;BME280;63646;49.110;9.140;2023-02-11T19:56:30;101340.25;;;20.39;42.21
75065;BME280;63646;49.110;9.140;2023-02-11T19:58:56;101342.19;;;20.37;42.78
75065;BME280;63646;49.110;9.140;2023-02-11T20:01:23;101346.25;;;20.43;42.30
75065;BME280;63646;49.110;9.140;2023-02-11T20:03:52;101344.38;;;20.45;42.39
75065;BME280;63646;49.110;9.140;2023-02-11T20:06:26;101352.16;;;20.48;42.63
75065;BME280;63646;49.110;9.140;2023-02-11T20:08:54;101351.38;;;20.46;42.79
75065;BME280;63646;49.110;9.140;2023-02-11T20:11:20;101346.00;;;20.47;42.58